createdAt,value
2018-12-16T00:00:38.258Z,93571.06
2018-12-16T00:03:05.838Z,93576.66
2018-12-16T00:05:33.461Z,93579.09
2018-12-16T00:08:01.091Z,93572.00
2018-12-16T00:10:28.673Z,93572.46
2018-12-16T00:12:57.213Z,93575.16
2018-12-16T00:15:25.033Z,93571.67
2018-12-16T00:17:52.602Z,93572.81
2018-12-16T00:20:20.214Z,93565.38
2018-12-16T00:22:47.894Z,93562.92
2018-12-16T00:25:15.682Z,93552.78
2018-12-16T00:27:43.246Z,93542.06
2018-12-16T00:30:10.835Z,93549.54
2018-12-16T00:32:38.427Z,93543.59
2018-12-16T00:35:06.112Z,93539.96
2018-12-16T00:37:33.993Z,93532.98
2018-12-16T00:40:01.661Z,93526.82
2018-12-16T00:42:29.247Z,93519.45
2018-12-16T00:44:56.803Z,93527.50
2018-12-16T00:47:24.364Z,93517.13
2018-12-16T00:49:52.005Z,93520.73
2018-12-16T00:52:19.581Z,93516.31
2018-12-16T00:54:47.277Z,93510.83
2018-12-16T00:57:14.866Z,93504.08
2018-12-16T00:59:42.407Z,93504.28
2018-12-16T01:02:15.823Z,93495.91
2018-12-16T01:04:43.397Z,93491.56
2018-12-16T01:07:10.983Z,93490.08
2018-12-16T01:09:38.582Z,93488.07
2018-12-16T01:12:06.734Z,93491.91
2018-12-16T01:14:34.318Z,93482.48
2018-12-16T01:17:02.006Z,93481.30
2018-12-16T01:19:29.885Z,93484.44
2018-12-16T01:21:57.516Z,93477.67
2018-12-16T01:24:25.130Z,93482.28
2018-12-16T01:26:52.725Z,93483.81
2018-12-16T01:29:20.297Z,93474.72
2018-12-16T01:31:47.831Z,93467.63
2018-12-16T01:34:15.458Z,93468.74
2018-12-16T01:36:43.033Z,93465.16
2018-12-16T01:39:10.646Z,93470.59
2018-12-16T01:41:38.313Z,93475.20
2018-12-16T01:44:05.849Z,93475.45
2018-12-16T01:46:33.447Z,93472.42
2018-12-16T01:49:00.988Z,93476.13
2018-12-16T01:51:28.604Z,93467.39
2018-12-16T01:53:56.183Z,93463.69
2018-12-16T01:56:23.709Z,93457.88
2018-12-16T01:58:51.266Z,93461.81
2018-12-16T02:01:18.863Z,93450.61
2018-12-16T02:03:46.396Z,93447.55
2018-12-16T02:06:13.975Z,93441.16
2018-12-16T02:08:41.971Z,93437.58
2018-12-16T02:11:09.497Z,93438.33
2018-12-16T02:13:37.027Z,93430.57
2018-12-16T02:16:04.878Z,93424.50
2018-12-16T02:18:33.105Z,93417.62
2018-12-16T02:21:00.845Z,93416.53
2018-12-16T02:23:28.397Z,93407.03
2018-12-16T02:25:55.942Z,93398.89
2018-12-16T02:28:23.499Z,93399.39
2018-12-16T02:30:51.284Z,93394.69
2018-12-16T02:33:18.844Z,93392.13
2018-12-16T02:35:47.715Z,93384.16
2018-12-16T02:38:15.263Z,93380.39
2018-12-16T02:40:42.794Z,93375.26
2018-12-16T02:43:10.534Z,93368.69
2018-12-16T02:45:38.213Z,93363.90
2018-12-16T02:48:05.846Z,93359.92
2018-12-16T02:50:33.446Z,93352.11
2018-12-16T02:53:04.515Z,93356.70
2018-12-16T02:55:30.672Z,93354.24
2018-12-16T02:57:58.238Z,93349.88
2018-12-16T03:00:25.845Z,93342.33
2018-12-16T03:02:53.537Z,93339.59
2018-12-16T03:05:21.282Z,93340.95
2018-12-16T03:07:48.886Z,93331.23
2018-12-16T03:10:16.427Z,93336.23
2018-12-16T03:12:44.165Z,93335.83
2018-12-16T03:15:11.739Z,93334.08
2018-12-16T03:17:39.292Z,93321.41
2018-12-16T03:20:07.329Z,93314.11
2018-12-16T03:22:34.907Z,93316.31
2018-12-16T03:25:02.744Z,93313.03
2018-12-16T03:27:30.387Z,93301.37
2018-12-16T03:29:57.935Z,93294.34
2018-12-16T03:32:26.193Z,93291.48
2018-12-16T03:34:53.716Z,93280.80
2018-12-16T03:37:21.287Z,93278.63
2018-12-16T03:39:48.910Z,93284.88
2018-12-16T03:42:16.497Z,93291.84
2018-12-16T03:44:44.177Z,93287.04
2018-12-16T03:47:11.769Z,93284.21
2018-12-16T03:49:39.391Z,93282.70
2018-12-16T03:52:07.159Z,93279.48
2018-12-16T03:54:34.893Z,93285.68
2018-12-16T03:57:02.635Z,93271.34
2018-12-16T03:59:31.458Z,93263.22
2018-12-16T04:01:59.172Z,93269.84
2018-12-16T04:04:26.746Z,93261.59
2018-12-16T04:06:54.456Z,93260.25
2018-12-16T04:09:22.008Z,93264.65
2018-12-16T04:11:49.561Z,93254.56
2018-12-16T04:14:17.191Z,93260.91
2018-12-16T04:16:44.795Z,93264.38
2018-12-16T04:19:12.874Z,93259.30
2018-12-16T04:21:40.393Z,93263.70
2018-12-16T04:24:08.090Z,93263.70
2018-12-16T04:26:36.567Z,93258.08
2018-12-16T04:29:04.141Z,93257.25
2018-12-16T04:31:31.685Z,93248.25
2018-12-16T04:34:00.371Z,93253.58
2018-12-16T04:36:27.929Z,93256.25
2018-12-16T04:38:55.519Z,93252.98
2018-12-16T04:41:23.118Z,93249.13
2018-12-16T04:43:50.705Z,93257.48
2018-12-16T04:46:18.254Z,93249.67
2018-12-16T04:48:45.822Z,93253.67
2018-12-16T04:51:13.498Z,93243.45
2018-12-16T04:53:41.174Z,93256.70
2018-12-16T04:56:08.763Z,93245.48
2018-12-16T04:58:36.383Z,93253.03
2018-12-16T05:01:04.022Z,93240.86
2018-12-16T05:03:31.586Z,93244.66
2018-12-16T05:05:59.461Z,93241.20
2018-12-16T05:08:27.025Z,93245.61
2018-12-16T05:10:54.568Z,93247.36
2018-12-16T05:13:22.301Z,93246.42
2018-12-16T05:15:49.839Z,93236.26
2018-12-16T05:18:17.383Z,93236.55
2018-12-16T05:20:45.007Z,93237.47
2018-12-16T05:23:12.566Z,93237.98
2018-12-16T05:25:40.118Z,93239.62
2018-12-16T05:28:08.714Z,93228.72
2018-12-16T05:30:36.264Z,93231.34
2018-12-16T05:33:03.844Z,93235.29
2018-12-16T05:35:31.430Z,93226.33
2018-12-16T05:37:58.970Z,93223.45
2018-12-16T05:40:26.559Z,93222.25
2018-12-16T05:42:54.092Z,93223.84
2018-12-16T05:45:21.668Z,93217.49
2018-12-16T05:47:49.214Z,93216.80
2018-12-16T05:50:17.106Z,93205.95
2018-12-16T05:52:44.673Z,93218.14
2018-12-16T05:55:12.258Z,93218.82
2018-12-16T05:57:40.804Z,93222.47
2018-12-16T06:00:08.609Z,93225.69
2018-12-16T06:02:36.152Z,93227.32
2018-12-16T06:05:03.817Z,93227.88
2018-12-16T06:07:31.698Z,93227.79
2018-12-16T06:09:59.245Z,93235.90
2018-12-16T06:12:26.887Z,93230.36
2018-12-16T06:14:54.794Z,93241.95
2018-12-16T06:17:22.386Z,93238.01
2018-12-16T06:19:49.930Z,93234.70
2018-12-16T06:22:17.631Z,93241.77
2018-12-16T06:24:46.179Z,93232.84
2018-12-16T06:27:13.757Z,93241.37
2018-12-16T06:29:42.532Z,93233.70
2018-12-16T06:32:10.088Z,93225.25
2018-12-16T06:34:37.631Z,93226.98
2018-12-16T06:37:06.069Z,93234.14
2018-12-16T06:39:33.621Z,93230.41
2018-12-16T06:42:02.109Z,93231.48
2018-12-16T06:44:29.693Z,93227.32
2018-12-16T06:46:57.281Z,93235.13
2018-12-16T06:49:24.864Z,93237.36
2018-12-16T06:51:52.401Z,93254.14
2018-12-16T06:54:20.422Z,93247.66
2018-12-16T06:56:47.975Z,93259.30
2018-12-16T06:59:15.626Z,93260.16
2018-12-16T07:01:43.244Z,93255.65
2018-12-16T07:04:11.645Z,93256.89
2018-12-16T07:06:39.320Z,93265.56
2018-12-16T07:09:07.228Z,93261.61
2018-12-16T07:11:34.816Z,93269.89
2018-12-16T07:14:02.413Z,93268.52
2018-12-16T07:16:30.741Z,93269.89
2018-12-16T07:18:58.437Z,93275.09
2018-12-16T07:21:26.031Z,93278.13
2018-12-16T07:23:53.653Z,93281.62
2018-12-16T07:26:21.230Z,93277.70
2018-12-16T07:28:48.841Z,93275.81
2018-12-16T07:31:16.693Z,93288.23
2018-12-16T07:33:44.651Z,93284.36
2018-12-16T07:36:12.412Z,93282.77
2018-12-16T07:38:40.263Z,93288.14
2018-12-16T07:41:07.858Z,93288.35
2018-12-16T07:43:35.597Z,93289.59
2018-12-16T07:46:03.410Z,93294.91
2018-12-16T07:48:31.202Z,93301.62
2018-12-16T07:50:58.771Z,93299.77
2018-12-16T07:53:26.341Z,93298.61
2018-12-16T07:55:54.926Z,93308.31
2018-12-16T07:58:22.601Z,93310.20
2018-12-16T08:00:50.181Z,93312.14
2018-12-16T08:03:17.762Z,93315.05
2018-12-16T08:05:45.360Z,93311.92
2018-12-16T08:08:13.253Z,93312.30
2018-12-16T08:10:40.881Z,93318.56
2018-12-16T08:13:08.665Z,93317.67
2018-12-16T08:15:36.262Z,93314.27
2018-12-16T08:18:03.927Z,93302.76
2018-12-16T08:20:31.498Z,93307.09
2018-12-16T08:22:59.168Z,93308.20
2018-12-16T08:25:26.781Z,93308.63
2018-12-16T08:27:54.355Z,93312.23
2018-12-16T08:30:22.742Z,93313.30
2018-12-16T08:32:50.275Z,93316.25
2018-12-16T08:35:17.856Z,93316.33
2018-12-16T08:37:45.470Z,93329.33
2018-12-16T08:40:13.105Z,93325.16
2018-12-16T08:42:40.701Z,93332.41
2018-12-16T08:45:08.595Z,93330.08
2018-12-16T08:47:36.202Z,93341.45
2018-12-16T08:50:03.866Z,93341.95
2018-12-16T08:52:31.509Z,93351.88
2018-12-16T08:54:59.085Z,93357.03
2018-12-16T08:57:26.737Z,93348.68
2018-12-16T08:59:54.308Z,93354.14
2018-12-16T09:02:21.912Z,93346.81
2018-12-16T09:04:49.514Z,93343.23
2018-12-16T09:07:17.135Z,93351.18
2018-12-16T09:09:45.290Z,93350.06
2018-12-16T09:12:13.556Z,93354.47
2018-12-16T09:14:41.170Z,93360.39
2018-12-16T09:17:09.137Z,93365.11
2018-12-16T09:19:36.717Z,93357.87
2018-12-16T09:22:04.301Z,93360.90
2018-12-16T09:24:37.219Z,93362.47
2018-12-16T09:27:02.183Z,93365.70
2018-12-16T09:29:29.740Z,93377.66
2018-12-16T09:31:57.359Z,93377.35
2018-12-16T09:34:25.002Z,93366.12
2018-12-16T09:36:52.603Z,93367.46
2018-12-16T09:39:20.645Z,93372.03
2018-12-16T09:41:48.256Z,93371.48
2018-12-16T09:44:15.842Z,93370.55
2018-12-16T09:46:43.507Z,93373.56
2018-12-16T09:49:11.118Z,93372.70
2018-12-16T09:51:38.836Z,93371.50
2018-12-16T09:54:06.523Z,93374.44
2018-12-16T09:56:34.134Z,93377.14
2018-12-16T09:59:02.244Z,93372.45
2018-12-16T10:01:29.923Z,93370.95
2018-12-16T10:03:57.482Z,93378.17
2018-12-16T10:06:25.076Z,93368.88
2018-12-16T10:08:52.765Z,93377.64
2018-12-16T10:11:20.333Z,93366.48
2018-12-16T10:13:47.930Z,93366.95
2018-12-16T10:16:16.187Z,93366.20
2018-12-16T10:18:43.809Z,93359.61
2018-12-16T10:21:11.428Z,93367.30
2018-12-16T10:23:38.984Z,93363.39
2018-12-16T10:26:06.932Z,93357.06
2018-12-16T10:28:34.506Z,93362.66
2018-12-16T10:31:02.070Z,93365.65
2018-12-16T10:33:29.653Z,93371.00
2018-12-16T10:35:57.328Z,93378.61
2018-12-16T10:38:24.883Z,93384.08
2018-12-16T10:40:52.445Z,93387.83
2018-12-16T10:43:19.986Z,93394.62
2018-12-16T10:45:47.546Z,93397.20
2018-12-16T10:48:15.401Z,93392.78
2018-12-16T10:50:42.942Z,93403.95
2018-12-16T10:53:10.469Z,93404.40
2018-12-16T10:55:38.029Z,93406.84
2018-12-16T10:58:05.741Z,93403.98
2018-12-16T11:00:40.669Z,93408.24
2018-12-16T11:03:08.414Z,93405.66
2018-12-16T11:05:36.219Z,93407.94
2018-12-16T11:08:04.261Z,93401.94
2018-12-16T11:10:31.822Z,93396.91
2018-12-16T11:12:59.478Z,93393.31
2018-12-16T11:15:27.077Z,93391.22
2018-12-16T11:17:54.610Z,93381.28
2018-12-16T11:20:22.174Z,93385.13
2018-12-16T11:22:50.003Z,93378.89
2018-12-16T11:25:17.813Z,93387.22
2018-12-16T11:27:45.391Z,93381.05
2018-12-16T11:30:13.138Z,93386.06
2018-12-16T11:32:40.731Z,93379.20
2018-12-16T11:35:08.302Z,93383.05
2018-12-16T11:37:35.872Z,93374.10
2018-12-16T11:40:03.939Z,93372.95
2018-12-16T11:42:31.540Z,93379.77
2018-12-16T11:44:59.127Z,93376.77
2018-12-16T11:47:26.938Z,93379.20
2018-12-16T11:49:54.525Z,93380.02
2018-12-16T11:52:22.108Z,93369.45
2018-12-16T11:54:49.868Z,93373.34
2018-12-16T11:57:17.457Z,93368.94
2018-12-16T11:59:45.446Z,93370.85
2018-12-16T12:02:13.125Z,93367.08
2018-12-16T12:04:40.698Z,93365.33
2018-12-16T12:07:08.279Z,93367.58
2018-12-16T12:09:35.873Z,93371.56
2018-12-16T12:12:03.504Z,93375.42
2018-12-16T12:14:31.052Z,93370.06
2018-12-16T12:16:58.616Z,93369.71
2018-12-16T12:19:30.742Z,93376.47
2018-12-16T12:22:04.234Z,93370.48
2018-12-16T12:24:27.975Z,93373.92
2018-12-16T12:26:55.551Z,93376.87
2018-12-16T12:29:23.145Z,93372.66
2018-12-16T12:31:50.804Z,93371.91
2018-12-16T12:34:18.438Z,93367.28
2018-12-16T12:36:46.305Z,93365.69
2018-12-16T12:39:13.888Z,93369.92
2018-12-16T12:41:41.441Z,93362.78
2018-12-16T12:44:09.070Z,93364.13
2018-12-16T12:46:36.658Z,93363.81
2018-12-16T12:49:04.337Z,93369.33
2018-12-16T12:51:31.983Z,93365.11
2018-12-16T12:53:59.564Z,93365.41
2018-12-16T12:56:27.480Z,93366.03
2018-12-16T12:58:55.024Z,93367.95
2018-12-16T13:01:22.613Z,93367.97
2018-12-16T13:03:50.244Z,93358.50
2018-12-16T13:06:18.659Z,93357.81
2018-12-16T13:08:46.301Z,93361.09
2018-12-16T13:11:13.906Z,93353.98
2018-12-16T13:13:41.506Z,93356.94
2018-12-16T13:16:09.128Z,93352.73
2018-12-16T13:18:36.660Z,93355.31
2018-12-16T13:21:04.351Z,93357.89
2018-12-16T13:23:31.937Z,93362.42
2018-12-16T13:26:04.238Z,93363.41
2018-12-16T13:28:31.826Z,93370.22
2018-12-16T13:30:59.403Z,93377.05
2018-12-16T13:33:26.973Z,93379.02
2018-12-16T13:35:54.575Z,93379.48
2018-12-16T13:38:22.170Z,93382.58
2018-12-16T13:40:49.797Z,93380.64
2018-12-16T13:43:17.429Z,93377.70
2018-12-16T13:45:45.085Z,93377.70
2018-12-16T13:48:12.661Z,93374.45
2018-12-16T13:50:40.401Z,93368.13
2018-12-16T13:53:08.020Z,93367.01
2018-12-16T13:55:40.803Z,93368.95
2018-12-16T13:58:05.676Z,93368.28
2018-12-16T14:00:34.108Z,93364.73
2018-12-16T14:03:01.906Z,93374.00
2018-12-16T14:05:29.556Z,93381.94
2018-12-16T14:07:57.133Z,93388.43
2018-12-16T14:10:24.717Z,93390.68
2018-12-16T14:12:52.293Z,93395.88
2018-12-16T14:15:19.890Z,93394.25
2018-12-16T14:17:47.473Z,93398.80
2018-12-16T14:20:15.069Z,93400.44
2018-12-16T14:22:42.927Z,93403.03
2018-12-16T14:25:10.474Z,93410.20
2018-12-16T14:27:38.072Z,93415.05
2018-12-16T14:30:06.949Z,93415.52
2018-12-16T14:32:34.477Z,93419.05
2018-12-16T14:35:02.221Z,93412.72
2018-12-16T14:37:29.843Z,93411.12
2018-12-16T14:39:57.459Z,93409.85
2018-12-16T14:42:25.412Z,93409.85
2018-12-16T14:44:52.987Z,93413.44
2018-12-16T14:47:20.570Z,93419.44
2018-12-16T14:49:48.544Z,93413.11
2018-12-16T14:52:16.132Z,93420.55
2018-12-16T14:54:43.713Z,93425.10
2018-12-16T14:57:11.634Z,93422.02
2018-12-16T14:59:39.211Z,93435.50
2018-12-16T15:02:06.827Z,93436.46
2018-12-16T15:04:34.410Z,93437.27
2018-12-16T15:07:02.000Z,93437.77
2018-12-16T15:09:29.635Z,93429.66
2018-12-16T15:11:57.194Z,93439.05
2018-12-16T15:14:24.928Z,93436.44
2018-12-16T15:16:52.692Z,93424.45
2018-12-16T15:19:20.284Z,93438.72
2018-12-16T15:21:47.880Z,93443.58
2018-12-16T15:24:15.453Z,93440.64
2018-12-16T15:26:43.024Z,93439.69
2018-12-16T15:29:10.590Z,93437.05
2018-12-16T15:31:38.263Z,93437.97
2018-12-16T15:34:05.912Z,93444.98
2018-12-16T15:36:33.533Z,93441.22
2018-12-16T15:39:01.138Z,93446.27
2018-12-16T15:41:28.747Z,93448.81
2018-12-16T15:43:56.414Z,93449.21
2018-12-16T15:46:23.998Z,93449.88
2018-12-16T15:48:52.007Z,93451.51
2018-12-16T15:51:19.705Z,93454.04
2018-12-16T15:53:47.423Z,93461.47
2018-12-16T15:56:15.227Z,93462.69
2018-12-16T15:58:42.821Z,93458.19
2018-12-16T16:01:10.430Z,93464.62
2018-12-16T16:03:38.042Z,93473.00
2018-12-16T16:06:05.629Z,93468.08
2018-12-16T16:08:33.203Z,93466.25
2018-12-16T16:11:01.050Z,93467.18
2018-12-16T16:13:28.662Z,93463.98
2018-12-16T16:15:56.191Z,93461.50
2018-12-16T16:18:23.925Z,93473.34
2018-12-16T16:20:51.604Z,93465.72
2018-12-16T16:23:19.153Z,93472.28
2018-12-16T16:25:46.725Z,93477.27
2018-12-16T16:28:14.276Z,93480.67
2018-12-16T16:30:41.861Z,93475.63
2018-12-16T16:33:09.894Z,93482.69
2018-12-16T16:35:37.436Z,93482.38
2018-12-16T16:38:05.317Z,93476.00
2018-12-16T16:40:33.115Z,93481.23
2018-12-16T16:43:00.844Z,93483.40
2018-12-16T16:45:28.418Z,93486.47
2018-12-16T16:47:55.992Z,93484.81
2018-12-16T16:50:23.567Z,93485.55
2018-12-16T16:52:51.234Z,93490.63
2018-12-16T16:55:19.224Z,93483.52
2018-12-16T16:57:46.817Z,93486.16
2018-12-16T17:00:14.501Z,93490.85
2018-12-16T17:02:42.101Z,93491.41
2018-12-16T17:05:09.750Z,93488.83
2018-12-16T17:07:37.345Z,93485.97
2018-12-16T17:10:05.370Z,93483.38
2018-12-16T17:12:33.197Z,93490.15
2018-12-16T17:15:00.839Z,93488.55
2018-12-16T17:17:28.428Z,93490.34
2018-12-16T17:19:56.009Z,93486.94
2018-12-16T17:22:23.629Z,93489.64
2018-12-16T17:24:51.209Z,93491.55
2018-12-16T17:27:18.760Z,93493.81
2018-12-16T17:29:46.315Z,93494.80
2018-12-16T17:32:14.030Z,93497.39
2018-12-16T17:34:41.570Z,93501.47
2018-12-16T17:37:09.504Z,93502.55
2018-12-16T17:39:37.069Z,93502.19
2018-12-16T17:42:04.651Z,93504.39
2018-12-16T17:44:32.284Z,93511.77
2018-12-16T17:46:59.874Z,93513.98
2018-12-16T17:49:27.574Z,93516.84
2018-12-16T17:51:55.147Z,93519.16
2018-12-16T17:54:22.893Z,93524.31
2018-12-16T17:56:50.446Z,93524.55
2018-12-16T17:59:18.477Z,93528.43
2018-12-16T18:01:46.337Z,93531.66
2018-12-16T18:04:13.893Z,93533.11
2018-12-16T18:06:41.549Z,93533.86
2018-12-16T18:09:09.175Z,93537.57
2018-12-16T18:11:36.747Z,93538.36
2018-12-16T18:14:04.864Z,93539.52
2018-12-16T18:16:32.432Z,93538.95
2018-12-16T18:19:00.105Z,93545.40
2018-12-16T18:21:27.714Z,93542.18
2018-12-16T18:23:55.377Z,93547.16
2018-12-16T18:26:22.960Z,93555.98
2018-12-16T18:28:51.654Z,93551.21
2018-12-16T18:31:19.248Z,93560.80
2018-12-16T18:33:46.808Z,93564.33
2018-12-16T18:36:14.459Z,93568.83
2018-12-16T18:38:42.049Z,93565.91
2018-12-16T18:41:09.798Z,93563.85
2018-12-16T18:43:37.438Z,93572.41
2018-12-16T18:46:05.042Z,93571.33
2018-12-16T18:48:32.739Z,93570.13
2018-12-16T18:51:00.302Z,93568.88
2018-12-16T18:53:27.866Z,93578.52
2018-12-16T18:55:55.481Z,93574.55
2018-12-16T18:58:23.078Z,93573.30
2018-12-16T19:00:50.686Z,93576.06
2018-12-16T19:03:18.945Z,93583.81
2018-12-16T19:05:46.547Z,93579.33
2018-12-16T19:08:14.169Z,93582.86
2018-12-16T19:10:41.786Z,93580.63
2018-12-16T19:13:09.388Z,93588.67
2018-12-16T19:15:36.958Z,93592.34
2018-12-16T19:18:04.743Z,93593.23
2018-12-16T19:20:32.295Z,93584.50
2018-12-16T19:22:59.965Z,93590.81
2018-12-16T19:25:27.645Z,93595.23
2018-12-16T19:27:55.272Z,93596.08
2018-12-16T19:30:22.971Z,93600.34
2018-12-16T19:32:50.526Z,93593.81
2018-12-16T19:35:18.181Z,93593.89
2018-12-16T19:37:45.815Z,93595.94
2018-12-16T19:40:13.405Z,93596.73
2018-12-16T19:42:41.127Z,93593.63
2018-12-16T19:45:08.798Z,93594.44
2018-12-16T19:47:36.438Z,93584.47
2018-12-16T19:50:04.290Z,93589.68
2018-12-16T19:52:31.923Z,93580.18
2018-12-16T19:54:59.833Z,93578.13
2018-12-16T19:57:27.988Z,93576.23
2018-12-16T19:59:55.738Z,93568.83
2018-12-16T20:02:23.437Z,93561.44
2018-12-16T20:04:56.623Z,93563.72
2018-12-16T20:07:24.183Z,93555.94
2018-12-16T20:09:51.853Z,93559.47
2018-12-16T20:12:19.493Z,93561.75
2018-12-16T20:14:47.167Z,93566.36
2018-12-16T20:17:14.748Z,93564.16
2018-12-16T20:19:42.559Z,93567.42
2018-12-16T20:22:10.123Z,93559.80
2018-12-16T20:24:37.792Z,93563.23
2018-12-16T20:27:11.842Z,93563.54
2018-12-16T20:29:36.648Z,93565.15
2018-12-16T20:32:04.462Z,93565.63
2018-12-16T20:34:32.081Z,93570.80
2018-12-16T20:36:59.667Z,93571.55
2018-12-16T20:39:27.465Z,93566.88
2018-12-16T20:41:55.031Z,93560.99
2018-12-16T20:44:23.215Z,93566.16
2018-12-16T20:46:51.114Z,93558.22
2018-12-16T20:49:18.824Z,93561.23
2018-12-16T20:51:46.555Z,93562.57
2018-12-16T20:54:14.238Z,93558.89
2018-12-16T20:56:41.845Z,93562.90
2018-12-16T20:59:09.469Z,93561.23
2018-12-16T21:01:37.057Z,93560.86
2018-12-16T21:04:04.657Z,93561.47
2018-12-16T21:06:32.627Z,93561.44
2018-12-16T21:09:00.814Z,93561.81
2018-12-16T21:11:34.113Z,93558.03
2018-12-16T21:14:07.283Z,93558.40
2018-12-16T21:16:40.469Z,93557.79
2018-12-16T21:19:08.025Z,93561.70
2018-12-16T21:21:35.699Z,93566.94
2018-12-16T21:24:03.845Z,93570.70
2018-12-16T21:26:31.437Z,93571.70
2018-12-16T21:28:59.010Z,93568.02
2018-12-16T21:31:26.630Z,93569.83
2018-12-16T21:33:54.181Z,93571.08
2018-12-16T21:36:21.773Z,93569.05
2018-12-16T21:38:49.357Z,93570.78
2018-12-16T21:41:16.920Z,93577.67
2018-12-16T21:43:44.515Z,93581.88
2018-12-16T21:46:12.097Z,93578.36
2018-12-16T21:48:39.680Z,93574.02
2018-12-16T21:51:07.268Z,93573.65
2018-12-16T21:53:34.860Z,93580.28
2018-12-16T21:56:02.789Z,93586.20
2018-12-16T21:58:30.347Z,93580.86
2018-12-16T22:00:57.959Z,93588.48
2018-12-16T22:03:25.650Z,93586.56
2018-12-16T22:05:53.267Z,93586.45
2018-12-16T22:08:20.821Z,93594.73
2018-12-16T22:10:48.435Z,93589.84
2018-12-16T22:13:16.003Z,93592.95
2018-12-16T22:15:43.581Z,93588.56
2018-12-16T22:18:11.186Z,93588.48
2018-12-16T22:20:38.780Z,93596.02
2018-12-16T22:23:06.338Z,93596.62
2018-12-16T22:25:33.954Z,93597.66
2018-12-16T22:28:01.558Z,93596.62
2018-12-16T22:30:29.141Z,93596.55
2018-12-16T22:32:56.769Z,93602.31
2018-12-16T22:35:24.361Z,93606.33
2018-12-16T22:37:51.893Z,93603.00
2018-12-16T22:40:19.838Z,93609.79
2018-12-16T22:42:47.394Z,93598.95
2018-12-16T22:45:14.977Z,93604.77
2018-12-16T22:47:42.585Z,93607.69
2018-12-16T22:50:10.109Z,93600.89
2018-12-16T22:52:37.761Z,93612.08
2018-12-16T22:55:05.693Z,93602.56
2018-12-16T22:57:33.325Z,93604.38
2018-12-16T23:00:00.975Z,93596.58
2018-12-16T23:02:28.529Z,93594.28
2018-12-16T23:04:56.111Z,93596.17
2018-12-16T23:07:23.686Z,93588.97
2018-12-16T23:09:51.234Z,93591.55
2018-12-16T23:12:18.825Z,93589.73
2018-12-16T23:14:46.352Z,93589.38
2018-12-16T23:17:14.009Z,93589.98
2018-12-16T23:19:43.691Z,93587.34
2018-12-16T23:22:11.280Z,93584.69
2018-12-16T23:24:39.359Z,93583.41
2018-12-16T23:27:07.728Z,93578.50
2018-12-16T23:29:35.285Z,93574.17
2018-12-16T23:32:02.848Z,93574.73
2018-12-16T23:34:30.743Z,93576.25
2018-12-16T23:36:58.309Z,93580.19
2018-12-16T23:39:26.071Z,93575.46
2018-12-16T23:41:53.913Z,93580.61
2018-12-16T23:44:22.276Z,93584.02
2018-12-16T23:46:49.837Z,93585.31
2018-12-16T23:49:17.724Z,93580.75
2018-12-16T23:51:45.291Z,93588.84
2018-12-16T23:54:12.850Z,93584.28
2018-12-16T23:56:40.381Z,93579.12
2018-12-16T23:59:08.526Z,93579.78
